createdAt,value
2017-12-13T00:01:15.846Z,91.19
2017-12-13T00:03:43.549Z,91.48
2017-12-13T00:06:11.227Z,91.52
2017-12-13T00:08:38.968Z,91.69
2017-12-13T00:11:07.593Z,91.83
2017-12-13T00:13:35.281Z,91.96
2017-12-13T00:16:03.003Z,91.82
2017-12-13T00:18:30.765Z,91.98
2017-12-13T00:20:58.534Z,91.67
2017-12-13T00:23:26.277Z,91.76
2017-12-13T00:25:53.981Z,91.92
2017-12-13T00:28:21.715Z,91.99
2017-12-13T00:30:49.578Z,92.02
2017-12-13T00:33:17.297Z,92.09
2017-12-13T00:35:44.959Z,92.09
2017-12-13T00:38:12.717Z,91.89
2017-12-13T00:40:40.477Z,91.76
2017-12-13T00:43:08.146Z,91.57
2017-12-13T00:45:35.836Z,91.24
2017-12-13T00:48:03.622Z,91.36
2017-12-13T00:50:31.306Z,91.01
2017-12-13T00:52:59.042Z,91.11
2017-12-13T00:55:26.790Z,91.06
2017-12-13T00:57:54.521Z,91.37
2017-12-13T01:00:22.278Z,91.25
2017-12-13T01:02:49.954Z,91.28
2017-12-13T01:05:17.705Z,91.25
2017-12-13T01:07:45.410Z,91.57
2017-12-13T01:10:13.186Z,92.08
2017-12-13T01:12:40.877Z,92.53
2017-12-13T01:15:09.215Z,92.62
2017-12-13T01:17:36.895Z,92.48
2017-12-13T01:20:04.637Z,92.46
2017-12-13T01:22:32.482Z,92.41
2017-12-13T01:25:00.195Z,91.88
2017-12-13T01:27:27.914Z,91.42
2017-12-13T01:29:55.641Z,91.20
2017-12-13T01:32:23.317Z,91.03
2017-12-13T01:34:51.060Z,90.76
2017-12-13T01:37:18.785Z,90.41
2017-12-13T01:39:46.493Z,90.82
2017-12-13T01:42:14.249Z,90.71
2017-12-13T01:44:41.996Z,90.42
2017-12-13T01:47:09.736Z,90.41
2017-12-13T01:49:37.501Z,89.85
2017-12-13T01:52:05.226Z,89.66
2017-12-13T01:54:32.915Z,90.24
2017-12-13T01:57:00.626Z,90.29
2017-12-13T01:59:28.310Z,90.03
2017-12-13T02:01:56.044Z,90.64
2017-12-13T02:04:23.769Z,91.23
2017-12-13T02:06:51.535Z,91.24
2017-12-13T02:09:19.268Z,90.70
2017-12-13T02:11:47.061Z,89.75
2017-12-13T02:14:14.788Z,89.37
2017-12-13T02:16:42.524Z,90.07
2017-12-13T02:19:10.288Z,89.83
2017-12-13T02:21:38.022Z,89.75
2017-12-13T02:24:05.810Z,89.56
2017-12-13T02:26:33.541Z,89.98
2017-12-13T02:29:01.259Z,90.32
2017-12-13T02:31:28.948Z,90.54
2017-12-13T02:33:56.643Z,90.91
2017-12-13T02:36:24.377Z,91.00
2017-12-13T02:38:52.049Z,91.40
2017-12-13T02:41:19.786Z,91.31
2017-12-13T02:43:47.540Z,91.83
2017-12-13T02:46:15.241Z,91.83
2017-12-13T02:48:42.952Z,91.32
2017-12-13T02:51:10.670Z,90.70
2017-12-13T02:53:38.424Z,90.43
2017-12-13T02:56:06.189Z,90.58
2017-12-13T02:58:33.997Z,90.77
2017-12-13T03:01:01.730Z,90.83
2017-12-13T03:03:29.438Z,90.79
2017-12-13T03:05:57.259Z,90.57
2017-12-13T03:08:24.996Z,90.64
2017-12-13T03:10:52.910Z,90.81
2017-12-13T03:13:20.668Z,90.66
2017-12-13T03:15:48.425Z,90.70
2017-12-13T03:18:16.189Z,90.07
2017-12-13T03:20:44.032Z,90.00
2017-12-13T03:23:11.786Z,90.25
2017-12-13T03:25:39.500Z,90.57
2017-12-13T03:28:07.187Z,90.63
2017-12-13T03:30:34.927Z,90.46
2017-12-13T03:33:02.598Z,90.60
2017-12-13T03:35:31.309Z,90.33
2017-12-13T03:37:59.019Z,90.35
2017-12-13T03:40:26.771Z,89.77
2017-12-13T03:42:54.444Z,89.43
2017-12-13T03:45:22.133Z,89.68
2017-12-13T03:47:49.867Z,89.77
2017-12-13T03:50:17.618Z,89.92
2017-12-13T03:52:45.386Z,90.08
2017-12-13T03:55:13.107Z,90.35
2017-12-13T03:57:40.822Z,90.69
2017-12-13T04:00:08.619Z,91.05
2017-12-13T04:02:36.972Z,90.87
2017-12-13T04:05:04.767Z,90.72
2017-12-13T04:07:32.511Z,90.80
2017-12-13T04:10:00.442Z,91.25
2017-12-13T04:12:28.127Z,91.77
2017-12-13T04:14:55.886Z,92.02
2017-12-13T04:17:23.579Z,91.67
2017-12-13T04:19:51.303Z,91.61
2017-12-13T04:22:19.066Z,90.44
2017-12-13T04:24:46.772Z,90.10
2017-12-13T04:27:14.506Z,89.00
2017-12-13T04:29:42.211Z,89.29
2017-12-13T04:32:09.970Z,89.89
2017-12-13T04:34:37.694Z,89.97
2017-12-13T04:37:05.458Z,90.33
2017-12-13T04:39:33.142Z,90.57
2017-12-13T04:42:00.864Z,90.31
2017-12-13T04:44:28.572Z,90.32
2017-12-13T04:46:56.259Z,89.74
2017-12-13T04:49:23.991Z,90.00
2017-12-13T04:51:51.743Z,90.55
2017-12-13T04:54:19.485Z,90.48
2017-12-13T04:56:47.159Z,89.96
2017-12-13T04:59:14.937Z,90.00
2017-12-13T05:01:43.572Z,90.14
2017-12-13T05:04:11.279Z,89.95
2017-12-13T05:06:39.032Z,89.70
2017-12-13T05:09:06.739Z,89.91
2017-12-13T05:11:34.464Z,89.61
2017-12-13T05:14:02.306Z,89.12
2017-12-13T05:16:29.998Z,88.28
2017-12-13T05:18:57.745Z,88.68
2017-12-13T05:21:25.495Z,89.47
2017-12-13T05:23:53.237Z,89.39
2017-12-13T05:26:21.016Z,89.06
2017-12-13T05:28:48.844Z,89.58
2017-12-13T05:31:16.555Z,89.72
2017-12-13T05:33:44.281Z,89.85
2017-12-13T05:36:12.225Z,90.03
2017-12-13T05:38:40.974Z,89.95
2017-12-13T05:41:08.684Z,89.55
2017-12-13T05:43:36.470Z,89.58
2017-12-13T05:46:04.170Z,89.75
2017-12-13T05:48:31.894Z,89.71
2017-12-13T05:50:59.637Z,89.84
2017-12-13T05:53:27.314Z,90.05
2017-12-13T05:55:55.053Z,89.45
2017-12-13T05:58:22.736Z,89.55
2017-12-13T06:00:50.592Z,89.79
2017-12-13T06:03:18.266Z,89.98
2017-12-13T06:05:45.965Z,89.55
2017-12-13T06:08:13.798Z,90.31
2017-12-13T06:10:41.608Z,90.53
2017-12-13T06:13:09.359Z,90.84
2017-12-13T06:15:37.107Z,91.36
2017-12-13T06:18:04.806Z,90.97
2017-12-13T06:20:32.537Z,90.95
2017-12-13T06:23:00.238Z,90.96
2017-12-13T06:25:27.909Z,90.73
2017-12-13T06:27:56.520Z,91.40
2017-12-13T06:30:24.248Z,91.33
2017-12-13T06:32:51.937Z,90.93
2017-12-13T06:35:19.775Z,90.65
2017-12-13T06:37:47.551Z,90.87
2017-12-13T06:40:15.481Z,89.98
2017-12-13T06:42:43.217Z,89.92
2017-12-13T06:45:11.186Z,90.25
2017-12-13T06:47:38.890Z,90.16
2017-12-13T06:50:06.586Z,89.92
2017-12-13T06:52:34.306Z,89.77
2017-12-13T06:55:02.038Z,89.71
2017-12-13T06:57:29.751Z,89.72
2017-12-13T06:59:57.551Z,89.97
2017-12-13T07:02:25.264Z,90.38
2017-12-13T07:04:52.994Z,90.47
2017-12-13T07:07:20.749Z,90.65
2017-12-13T07:09:48.550Z,90.30
2017-12-13T07:12:16.317Z,90.21
2017-12-13T07:14:44.050Z,90.09
2017-12-13T07:17:11.849Z,90.23
2017-12-13T07:19:39.643Z,89.91
2017-12-13T07:22:07.428Z,89.48
2017-12-13T07:24:35.153Z,89.10
2017-12-13T07:27:02.977Z,88.63
2017-12-13T07:29:30.730Z,88.25
2017-12-13T07:31:58.535Z,88.60
2017-12-13T07:34:26.397Z,88.83
2017-12-13T07:36:54.143Z,88.58
2017-12-13T07:39:21.926Z,88.87
2017-12-13T07:41:49.620Z,88.87
2017-12-13T07:44:17.345Z,89.38
2017-12-13T07:46:45.023Z,89.74
2017-12-13T07:49:12.765Z,89.67
2017-12-13T07:51:40.508Z,89.43
2017-12-13T07:54:08.277Z,89.45
2017-12-13T07:56:36.001Z,89.94
2017-12-13T07:59:03.688Z,90.50
2017-12-13T08:01:31.467Z,89.93
2017-12-13T08:03:59.163Z,89.13
2017-12-13T08:06:26.909Z,88.79
2017-12-13T08:08:54.619Z,88.67
2017-12-13T08:11:22.369Z,88.59
2017-12-13T08:13:50.080Z,85.44
2017-12-13T08:16:17.756Z,81.63
2017-12-13T08:18:45.567Z,80.04
2017-12-13T08:21:13.349Z,80.26
2017-12-13T08:23:41.119Z,78.97
2017-12-13T08:26:08.890Z,81.01
2017-12-13T08:28:36.628Z,82.54
2017-12-13T08:31:04.348Z,80.83
2017-12-13T08:33:33.132Z,81.70
2017-12-13T08:36:00.823Z,82.44
2017-12-13T08:38:28.537Z,83.21
2017-12-13T08:40:56.352Z,84.09
2017-12-13T08:43:24.089Z,84.58
2017-12-13T08:45:51.886Z,84.99
2017-12-13T08:48:19.762Z,84.84
2017-12-13T08:50:47.491Z,85.06
2017-12-13T08:53:15.207Z,85.28
2017-12-13T08:55:42.950Z,85.36
2017-12-13T08:58:10.700Z,85.62
2017-12-13T09:00:38.471Z,85.60
2017-12-13T09:03:06.173Z,85.11
2017-12-13T09:05:33.939Z,84.58
2017-12-13T09:08:01.661Z,85.79
2017-12-13T09:10:29.434Z,85.81
2017-12-13T09:12:57.211Z,84.38
2017-12-13T09:15:24.979Z,84.85
2017-12-13T09:17:53.073Z,84.80
2017-12-13T09:20:20.839Z,85.51
2017-12-13T09:22:48.547Z,85.71
2017-12-13T09:25:16.321Z,86.63
2017-12-13T09:27:44.060Z,86.11
2017-12-13T09:30:11.950Z,86.32
2017-12-13T09:32:39.731Z,85.86
2017-12-13T09:35:07.481Z,85.23
2017-12-13T09:37:36.608Z,84.48
2017-12-13T09:40:04.651Z,84.27
2017-12-13T09:42:32.358Z,83.74
2017-12-13T09:45:00.144Z,83.47
2017-12-13T09:47:27.951Z,82.75
2017-12-13T09:49:55.663Z,83.41
2017-12-13T09:52:23.407Z,84.31
2017-12-13T09:54:51.120Z,84.70
2017-12-13T09:57:18.943Z,84.34
2017-12-13T09:59:46.650Z,84.56
2017-12-13T10:02:14.505Z,84.67
2017-12-13T10:04:43.297Z,84.43
2017-12-13T10:07:11.052Z,83.98
2017-12-13T10:09:38.828Z,83.52
2017-12-13T10:12:06.587Z,79.99
2017-12-13T10:14:34.344Z,76.99
2017-12-13T10:17:02.112Z,76.58
2017-12-13T10:19:31.106Z,76.92
2017-12-13T10:21:58.817Z,76.36
2017-12-13T10:24:26.544Z,78.97
2017-12-13T10:26:54.302Z,78.55
2017-12-13T10:29:22.092Z,79.62
2017-12-13T10:31:49.813Z,79.57
2017-12-13T10:34:17.595Z,79.38
2017-12-13T10:36:45.357Z,81.38
2017-12-13T10:39:13.143Z,81.01
2017-12-13T10:41:40.873Z,81.49
2017-12-13T10:44:08.674Z,80.82
2017-12-13T10:46:36.490Z,79.78
2017-12-13T10:49:05.059Z,79.70
2017-12-13T10:51:32.781Z,79.68
2017-12-13T10:54:00.566Z,78.79
2017-12-13T10:56:28.362Z,78.08
2017-12-13T10:58:56.171Z,77.70
2017-12-13T11:01:23.916Z,76.71
2017-12-13T11:03:51.617Z,76.90
2017-12-13T11:06:19.345Z,77.98
2017-12-13T11:08:47.073Z,78.96
2017-12-13T11:11:14.801Z,79.16
2017-12-13T11:13:42.554Z,78.48
2017-12-13T11:16:10.273Z,76.91
2017-12-13T11:18:38.077Z,76.50
2017-12-13T11:21:06.070Z,75.84
2017-12-13T11:23:33.902Z,74.86
2017-12-13T11:26:01.721Z,74.90
2017-12-13T11:28:29.530Z,75.37
2017-12-13T11:30:57.307Z,74.83
2017-12-13T11:33:25.071Z,74.73
2017-12-13T11:35:52.837Z,75.16
2017-12-13T11:38:20.644Z,72.40
2017-12-13T11:40:48.416Z,72.69
2017-12-13T11:43:16.177Z,74.16
2017-12-13T11:45:43.902Z,74.00
2017-12-13T11:48:11.593Z,74.17
2017-12-13T11:50:39.337Z,73.02
2017-12-13T11:53:07.088Z,71.72
2017-12-13T11:55:34.773Z,71.33
2017-12-13T11:58:02.498Z,72.11
2017-12-13T12:00:30.287Z,72.16
2017-12-13T12:02:57.995Z,72.14
2017-12-13T12:05:25.753Z,72.96
2017-12-13T12:07:53.447Z,72.17
2017-12-13T12:10:21.188Z,72.22
2017-12-13T12:12:48.937Z,70.47
2017-12-13T12:15:16.728Z,69.72
2017-12-13T12:17:44.442Z,68.55
2017-12-13T12:20:12.222Z,67.50
2017-12-13T12:22:39.998Z,68.54
2017-12-13T12:25:07.714Z,67.24
2017-12-13T12:27:35.453Z,68.20
2017-12-13T12:30:03.186Z,67.22
2017-12-13T12:32:30.951Z,66.18
2017-12-13T12:34:58.703Z,65.35
2017-12-13T12:37:26.458Z,64.85
2017-12-13T12:39:54.209Z,65.52
2017-12-13T12:42:21.986Z,65.49
2017-12-13T12:44:49.715Z,65.62
2017-12-13T12:47:17.463Z,61.16
2017-12-13T12:49:45.184Z,64.20
2017-12-13T12:52:12.934Z,64.94
2017-12-13T12:54:40.731Z,65.09
2017-12-13T12:57:08.449Z,65.93
2017-12-13T12:59:36.227Z,66.17
2017-12-13T13:02:03.942Z,68.01
2017-12-13T13:04:31.705Z,67.69
2017-12-13T13:06:59.432Z,66.65
2017-12-13T13:09:27.223Z,65.35
2017-12-13T13:11:55.015Z,64.64
2017-12-13T13:14:22.751Z,64.41
2017-12-13T13:16:50.513Z,64.19
2017-12-13T13:19:18.593Z,66.06
2017-12-13T13:21:46.307Z,65.71
2017-12-13T13:24:14.315Z,65.63
2017-12-13T13:26:41.996Z,66.21
2017-12-13T13:29:09.709Z,66.89
2017-12-13T13:31:37.528Z,66.39
2017-12-13T13:34:05.320Z,67.08
2017-12-13T13:36:33.095Z,66.44
2017-12-13T13:39:00.866Z,67.61
2017-12-13T13:41:28.570Z,68.36
2017-12-13T13:43:56.342Z,68.15
2017-12-13T13:46:24.021Z,68.15
2017-12-13T13:48:51.731Z,71.16
2017-12-13T13:51:19.479Z,72.46
2017-12-13T13:53:47.305Z,73.70
2017-12-13T13:56:15.022Z,74.03
2017-12-13T13:58:42.734Z,73.81
2017-12-13T14:01:10.511Z,74.99
2017-12-13T14:03:38.183Z,74.04
2017-12-13T14:06:05.910Z,74.82
2017-12-13T14:08:33.648Z,74.73
2017-12-13T14:11:01.344Z,74.94
2017-12-13T14:13:29.098Z,75.78
2017-12-13T14:15:57.880Z,76.87
2017-12-13T14:18:25.585Z,77.45
2017-12-13T14:20:53.363Z,78.54
2017-12-13T14:23:21.460Z,79.08
2017-12-13T14:25:49.202Z,78.37
2017-12-13T14:28:16.953Z,78.50
2017-12-13T14:30:44.775Z,78.71
2017-12-13T14:33:12.533Z,79.08
2017-12-13T14:35:40.243Z,78.29
2017-12-13T14:38:07.948Z,79.48
2017-12-13T14:40:36.342Z,80.41
2017-12-13T14:43:04.069Z,80.26
2017-12-13T14:45:31.748Z,80.67
2017-12-13T14:47:59.558Z,81.09
2017-12-13T14:50:27.816Z,81.02
2017-12-13T14:52:55.538Z,81.46
2017-12-13T14:55:23.254Z,81.55
2017-12-13T14:57:50.981Z,82.32
2017-12-13T15:00:18.720Z,82.12
2017-12-13T15:02:46.455Z,82.22
2017-12-13T15:05:14.204Z,82.37
2017-12-13T15:07:41.983Z,82.14
2017-12-13T15:10:09.759Z,81.91
2017-12-13T15:12:37.580Z,82.33
2017-12-13T15:15:05.353Z,82.25
2017-12-13T15:17:33.165Z,82.40
2017-12-13T15:20:00.917Z,83.05
2017-12-13T15:22:28.743Z,84.39
2017-12-13T15:24:56.605Z,83.86
2017-12-13T15:27:24.273Z,83.74
2017-12-13T15:29:52.033Z,83.76
2017-12-13T15:32:19.729Z,83.91
2017-12-13T15:34:48.509Z,84.16
2017-12-13T15:37:16.478Z,84.33
2017-12-13T15:39:44.392Z,83.90
2017-12-13T15:42:12.198Z,83.13
2017-12-13T15:44:39.967Z,83.63
2017-12-13T15:47:07.713Z,83.81
2017-12-13T15:49:35.477Z,83.86
2017-12-13T15:52:03.304Z,84.20
2017-12-13T15:54:31.136Z,84.37
2017-12-13T15:56:58.909Z,84.40
2017-12-13T15:59:27.439Z,84.29
2017-12-13T16:01:55.206Z,84.75
2017-12-13T16:04:23.079Z,85.04
2017-12-13T16:06:50.868Z,84.78
2017-12-13T16:09:19.612Z,84.50
2017-12-13T16:11:47.362Z,84.70
2017-12-13T16:14:15.132Z,85.01
2017-12-13T16:16:42.933Z,85.01
2017-12-13T16:19:10.639Z,85.53
2017-12-13T16:21:38.395Z,85.75
2017-12-13T16:24:06.901Z,86.25
2017-12-13T16:26:34.602Z,86.38
2017-12-13T16:29:02.330Z,86.33
2017-12-13T16:31:30.182Z,86.25
2017-12-13T16:33:58.413Z,86.79
2017-12-13T16:36:26.756Z,86.69
2017-12-13T16:38:54.508Z,86.68
2017-12-13T16:41:22.326Z,86.99
2017-12-13T16:43:50.098Z,87.31
2017-12-13T16:46:17.816Z,86.88
2017-12-13T16:48:45.545Z,87.12
2017-12-13T16:51:13.340Z,87.19
2017-12-13T16:53:41.528Z,87.31
2017-12-13T16:56:09.492Z,87.08
2017-12-13T16:58:37.758Z,87.21
2017-12-13T17:01:05.601Z,87.13
2017-12-13T17:03:34.162Z,87.23
2017-12-13T17:06:01.973Z,87.28
2017-12-13T17:08:29.828Z,87.36
2017-12-13T17:10:57.680Z,86.58
2017-12-13T17:13:25.472Z,87.75
2017-12-13T17:15:54.289Z,88.23
2017-12-13T17:18:23.265Z,87.43
2017-12-13T17:20:51.070Z,87.33
2017-12-13T17:23:19.017Z,87.25
2017-12-13T17:25:46.968Z,86.48
2017-12-13T17:28:14.868Z,86.82
2017-12-13T17:30:42.867Z,87.47
2017-12-13T17:33:10.700Z,86.91
2017-12-13T17:35:38.519Z,87.59
2017-12-13T17:38:06.361Z,86.98
2017-12-13T17:40:34.250Z,87.26
2017-12-13T17:43:02.182Z,87.23
2017-12-13T17:45:30.950Z,86.83
2017-12-13T17:47:58.698Z,87.22
2017-12-13T17:50:26.479Z,86.84
2017-12-13T17:52:54.632Z,87.09
2017-12-13T17:55:22.450Z,87.05
2017-12-13T17:57:50.375Z,86.62
2017-12-13T18:00:18.276Z,87.05
2017-12-13T18:02:46.537Z,87.16
2017-12-13T18:05:14.364Z,87.49
2017-12-13T18:07:42.376Z,87.60
2017-12-13T18:10:10.344Z,87.46
2017-12-13T18:12:38.661Z,88.02
2017-12-13T18:15:06.544Z,87.69
2017-12-13T18:17:34.443Z,87.98
2017-12-13T18:20:02.261Z,88.45
2017-12-13T18:22:30.058Z,88.48
2017-12-13T18:24:58.429Z,87.98
2017-12-13T18:27:26.185Z,87.39
2017-12-13T18:29:54.880Z,87.15
2017-12-13T18:32:22.673Z,86.84
2017-12-13T18:34:50.512Z,87.28
2017-12-13T18:37:18.322Z,86.92
2017-12-13T18:39:46.128Z,88.14
2017-12-13T18:42:13.997Z,87.27
2017-12-13T18:44:42.802Z,85.53
2017-12-13T18:47:10.575Z,87.41
2017-12-13T18:49:38.509Z,86.39
2017-12-13T18:52:06.226Z,85.96
2017-12-13T18:54:34.934Z,86.27
2017-12-13T18:57:02.852Z,86.32
2017-12-13T18:59:30.756Z,87.04
2017-12-13T19:01:59.203Z,87.32
2017-12-13T19:04:27.131Z,87.88
2017-12-13T19:06:55.110Z,88.47
2017-12-13T19:09:23.284Z,88.52
2017-12-13T19:11:51.177Z,88.40
2017-12-13T19:14:18.956Z,87.10
2017-12-13T19:16:46.762Z,86.80
2017-12-13T19:19:14.572Z,87.63
2017-12-13T19:21:43.188Z,87.69
2017-12-13T19:24:10.997Z,87.21
2017-12-13T19:26:38.816Z,87.66
2017-12-13T19:29:07.164Z,87.58
2017-12-13T19:31:34.925Z,86.88
2017-12-13T19:34:03.382Z,88.21
2017-12-13T19:36:32.143Z,88.75
2017-12-13T19:38:59.898Z,88.63
2017-12-13T19:41:29.070Z,87.94
2017-12-13T19:43:58.916Z,87.60
2017-12-13T19:46:26.965Z,88.17
2017-12-13T19:48:54.783Z,89.00
2017-12-13T19:51:23.330Z,88.45
2017-12-13T19:53:51.245Z,88.12
2017-12-13T19:56:19.172Z,87.72
2017-12-13T19:58:47.044Z,87.99
2017-12-13T20:01:14.934Z,87.99
2017-12-13T20:03:43.095Z,88.09
2017-12-13T20:06:11.389Z,87.67
2017-12-13T20:08:39.857Z,87.98
2017-12-13T20:11:09.005Z,88.30
2017-12-13T20:13:36.856Z,89.28
2017-12-13T20:16:05.485Z,88.59
2017-12-13T20:18:33.322Z,87.80
2017-12-13T20:21:01.683Z,88.38
2017-12-13T20:23:31.163Z,88.87
2017-12-13T20:25:59.942Z,88.51
2017-12-13T20:28:28.294Z,88.79
2017-12-13T20:30:56.389Z,88.71
2017-12-13T20:33:24.407Z,88.57
2017-12-13T20:35:52.638Z,88.94
2017-12-13T20:38:20.482Z,89.00
2017-12-13T20:40:48.307Z,90.29
2017-12-13T20:43:16.012Z,90.43
2017-12-13T20:45:44.092Z,89.69
2017-12-13T20:48:11.824Z,89.64
2017-12-13T20:50:39.733Z,89.35
2017-12-13T20:53:08.755Z,89.35
2017-12-13T20:55:36.679Z,89.53
2017-12-13T20:58:04.517Z,90.33
2017-12-13T21:00:32.243Z,90.62
2017-12-13T21:03:00.074Z,90.13
2017-12-13T21:05:28.230Z,90.15
2017-12-13T21:07:55.991Z,89.78
2017-12-13T21:10:23.761Z,89.51
2017-12-13T21:12:51.552Z,89.33
2017-12-13T21:15:19.308Z,89.17
2017-12-13T21:17:47.784Z,89.03
2017-12-13T21:20:15.734Z,89.40
2017-12-13T21:22:43.497Z,89.98
2017-12-13T21:25:11.273Z,89.34
2017-12-13T21:27:38.996Z,89.21
2017-12-13T21:30:06.874Z,89.06
2017-12-13T21:32:34.597Z,88.68
2017-12-13T21:35:03.931Z,88.91
2017-12-13T21:37:31.761Z,88.84
2017-12-13T21:39:59.427Z,88.51
2017-12-13T21:42:27.351Z,88.44
2017-12-13T21:44:55.183Z,88.39
2017-12-13T21:47:22.887Z,88.25
2017-12-13T21:49:50.700Z,88.45
2017-12-13T21:52:18.413Z,88.19
2017-12-13T21:54:46.206Z,88.31
2017-12-13T21:57:13.953Z,87.89
2017-12-13T21:59:41.999Z,88.61
2017-12-13T22:02:09.826Z,89.73
2017-12-13T22:04:38.049Z,89.22
2017-12-13T22:07:06.192Z,89.51
2017-12-13T22:09:33.919Z,89.17
2017-12-13T22:12:01.712Z,88.20
2017-12-13T22:14:29.466Z,87.99
2017-12-13T22:16:57.295Z,88.38
2017-12-13T22:19:25.106Z,88.60
2017-12-13T22:21:52.916Z,88.79
2017-12-13T22:24:20.697Z,88.80
2017-12-13T22:26:48.717Z,88.63
2017-12-13T22:29:16.915Z,88.70
2017-12-13T22:31:44.738Z,88.63
2017-12-13T22:34:12.450Z,88.20
2017-12-13T22:36:40.326Z,87.88
2017-12-13T22:39:08.319Z,88.71
2017-12-13T22:41:36.094Z,88.73
2017-12-13T22:44:03.890Z,88.97
2017-12-13T22:46:31.673Z,89.44
2017-12-13T22:48:59.428Z,89.22
2017-12-13T22:51:27.209Z,88.85
2017-12-13T22:53:54.910Z,89.08
2017-12-13T22:56:23.868Z,89.22
2017-12-13T22:58:51.574Z,88.77
2017-12-13T23:01:19.374Z,88.55
2017-12-13T23:03:47.122Z,89.28
2017-12-13T23:06:14.823Z,89.34
2017-12-13T23:08:42.587Z,89.57
2017-12-13T23:11:10.297Z,90.50
2017-12-13T23:13:38.014Z,89.02
2017-12-13T23:16:05.776Z,89.98
2017-12-13T23:18:33.515Z,90.24
2017-12-13T23:21:01.262Z,89.95
2017-12-13T23:23:28.948Z,89.66
2017-12-13T23:25:56.698Z,90.28
2017-12-13T23:28:24.506Z,89.71
2017-12-13T23:30:52.299Z,89.62
2017-12-13T23:33:20.022Z,88.99
2017-12-13T23:35:47.720Z,88.60
2017-12-13T23:38:15.463Z,88.85
2017-12-13T23:40:43.132Z,89.10
2017-12-13T23:43:10.921Z,89.44
2017-12-13T23:45:38.710Z,89.26
2017-12-13T23:48:06.454Z,89.39
2017-12-13T23:50:34.200Z,89.44
2017-12-13T23:53:01.934Z,89.12
2017-12-13T23:55:29.672Z,90.08
2017-12-13T23:57:57.396Z,90.32
